Time;durP1;ratioP1;P1;durP2;ratioP2;P2;SDS_P1;SDS_P2;PMS_P1;PMS_P2;Temp;Humidity;BMP_temperature;BMP_pressure;BME280_temperature;BME280_humidity;BME280_pressure;Samples;Min_cycle;Max_cycle;Signal;HPM_P1;HPM_P2
2022/06/27 00:02:06;;;;;;;0.00;0.00;;;;;;;;;;5008677;28;20124;-68
2022/06/27 00:04:35;;;;;;;0.00;0.00;;;;;;;;;;5007489;28;20131;-68
2022/06/27 00:07:05;;;;;;;0.00;0.00;;;;;;;;;;5004412;28;20589;-69
2022/06/27 00:09:33;;;;;;;0.00;0.00;;;;;;;;;;4998884;28;20085;-68
2022/06/27 00:12:02;;;;;;;0.00;0.00;;;;;;;;;;5006492;28;20076;-69
2022/06/27 00:14:31;;;;;;;0.05;0.05;;;;;;;;;;5009169;28;20092;-66
2022/06/27 00:17:00;;;;;;;0.05;0.05;;;;;;;;;;5005155;28;20140;-68
2022/06/27 00:19:28;;;;;;;0.30;0.13;;;;;;;;;;4997676;28;20042;-67
2022/06/27 00:21:57;;;;;;;0.00;0.00;;;;;;;;;;5008664;28;20126;-67
2022/06/27 00:24:26;;;;;;;0.00;0.00;;;;;;;;;;5005969;28;20051;-68
2022/06/27 00:26:55;;;;;;;0.00;0.00;;;;;;;;;;5005912;28;20081;-67
2022/06/27 00:29:23;;;;;;;0.00;0.00;;;;;;;;;;5007240;28;20103;-67
2022/06/27 00:31:52;;;;;;;0.00;0.00;;;;;;;;;;5004858;28;20050;-68
2022/06/27 00:34:20;;;;;;;0.00;0.00;;;;;;;;;;5005451;28;20525;-67
2022/06/27 00:36:48;;;;;;;0.00;0.00;;;;;;;;;;5003080;28;20061;-68
2022/06/27 00:39:17;;;;;;;0.00;0.00;;;;;;;;;;5004734;28;20078;-67
2022/06/27 00:41:47;;;;;;;0.10;0.10;;;;;;;;;;5007553;28;20125;-68
2022/06/27 00:44:30;;;;;;;0.10;0.10;;;;;;;;;;5007856;28;20136;-68
2022/06/27 00:46:58;;;;;;;0.00;0.00;;;;;;;;;;5005621;28;20486;-68
2022/06/27 00:49:26;;;;;;;0.00;0.00;;;;;;;;;;5007416;28;20132;-67
2022/06/27 00:51:55;;;;;;;0.00;0.00;;;;;;;;;;5006133;28;20038;-67
2022/06/27 00:54:24;;;;;;;0.00;0.00;;;;;;;;;;5008044;28;20553;-67
2022/06/27 00:56:54;;;;;;;0.00;0.00;;;;;;;;;;5006942;28;20648;-68
2022/06/27 00:59:22;;;;;;;0.00;0.00;;;;;;;;;;5002521;28;20144;-67
2022/06/27 01:01:50;;;;;;;0.00;0.00;;;;;;;;;;5003417;28;20487;-67
2022/06/27 01:04:21;;;;;;;0.00;0.00;;;;;;;;;;5008480;28;20536;-68
2022/06/27 01:06:51;;;;;;;0.20;0.20;;;;;;;;;;5004053;28;20121;-68
2022/06/27 01:09:20;;;;;;;0.00;0.00;;;;;;;;;;5003111;28;20062;-68
2022/06/27 01:11:48;;;;;;;0.10;0.10;;;;;;;;;;5006100;28;20081;-68
2022/06/27 01:14:18;;;;;;;0.00;0.00;;;;;;;;;;4968693;28;20472;-68
2022/06/27 01:16:47;;;;;;;0.00;0.00;;;;;;;;;;4967032;28;20133;-68
2022/06/27 01:19:16;;;;;;;0.00;0.00;;;;;;;;;;4959690;28;20043;-67
2022/06/27 01:21:46;;;;;;;0.13;0.13;;;;;;;;;;4967560;28;20485;-67
2022/06/27 01:24:16;;;;;;;0.22;0.22;;;;;;;;;;4964878;28;20047;-68
2022/06/27 01:26:45;;;;;;;0.00;0.00;;;;;;;;;;4954532;28;20133;-68
2022/06/27 01:29:14;;;;;;;0.00;0.00;;;;;;;;;;4961686;28;20505;-68
2022/06/27 01:31:42;;;;;;;0.00;0.00;;;;;;;;;;4973104;28;20110;-68
2022/06/27 01:34:11;;;;;;;0.00;0.00;;;;;;;;;;4968762;28;20054;-68
2022/06/27 01:36:45;;;;;;;0.00;0.00;;;;;;;;;;4961938;28;20582;-68
2022/06/27 01:39:16;;;;;;;0.00;0.00;;;;;;;;;;4964643;28;20082;-68
2022/06/27 01:41:46;;;;;;;0.65;0.20;;;;;;;;;;4968425;28;20502;-68
2022/06/27 01:44:15;;;;;;;0.00;0.00;;;;;;;;;;4966276;28;20181;-68
2022/06/27 01:46:44;;;;;;;0.00;0.00;;;;;;;;;;4964138;28;20146;-68
2022/06/27 01:49:13;;;;;;;0.00;0.00;;;;;;;;;;4963473;28;20051;-68
2022/06/27 01:51:42;;;;;;;0.00;0.00;;;;;;;;;;4956792;28;20137;-68
2022/06/27 01:54:12;;;;;;;0.00;0.00;;;;;;;;;;4961392;28;20123;-68
2022/06/27 01:56:42;;;;;;;0.00;0.00;;;;;;;;;;4958331;28;20129;-68
2022/06/27 01:59:10;;;;;;;0.00;0.00;;;;;;;;;;4970249;28;20121;-68
2022/06/27 02:01:40;;;;;;;0.10;0.10;;;;;;;;;;4968947;28;20059;-68
2022/06/27 02:04:10;;;;;;;0.10;0.10;;;;;;;;;;4969146;28;20134;-69
2022/06/27 02:06:38;;;;;;;0.47;0.40;;;;;;;;;;4955225;28;20053;-69
2022/06/27 02:09:08;;;;;;;0.95;0.30;;;;;;;;;;4962896;28;20051;-69
2022/06/27 02:11:37;;;;;;;0.00;0.00;;;;;;;;;;4968605;28;20078;-69
2022/06/27 02:14:07;;;;;;;0.00;0.00;;;;;;;;;;5004122;28;20049;-69
2022/06/27 02:16:36;;;;;;;0.00;0.00;;;;;;;;;;5006049;28;20096;-68
2022/06/27 02:19:05;;;;;;;0.45;0.40;;;;;;;;;;5008262;28;20060;-67
2022/06/27 02:21:33;;;;;;;0.10;0.10;;;;;;;;;;5012000;28;20100;-67
2022/06/27 02:24:02;;;;;;;0.00;0.00;;;;;;;;;;5013733;28;20153;-68
2022/06/27 02:26:31;;;;;;;0.00;0.00;;;;;;;;;;5007934;28;20058;-68
2022/06/27 02:29:00;;;;;;;0.00;0.00;;;;;;;;;;5010726;28;20168;-67
2022/06/27 02:31:33;;;;;;;0.00;0.00;;;;;;;;;;5008131;28;20048;-67
2022/06/27 02:34:01;;;;;;;0.00;0.00;;;;;;;;;;5012187;28;20049;-68
2022/06/27 02:36:32;;;;;;;0.00;0.00;;;;;;;;;;5010964;28;20120;-68
2022/06/27 02:39:02;;;;;;;0.03;0.03;;;;;;;;;;5011651;28;20056;-67
2022/06/27 02:41:34;;;;;;;0.13;0.10;;;;;;;;;;5009377;28;20046;-67
2022/06/27 02:44:03;;;;;;;0.05;0.05;;;;;;;;;;5012767;28;20108;-67
2022/06/27 02:46:34;;;;;;;0.00;0.00;;;;;;;;;;5010853;28;20129;-67
2022/06/27 02:49:03;;;;;;;0.00;0.00;;;;;;;;;;5013337;28;20409;-68
2022/06/27 02:51:34;;;;;;;0.22;0.22;;;;;;;;;;5010642;28;20134;-68
2022/06/27 02:54:04;;;;;;;0.00;0.00;;;;;;;;;;5012247;28;20107;-68
2022/06/27 02:56:33;;;;;;;0.05;0.05;;;;;;;;;;5007908;28;20137;-68
2022/06/27 02:59:08;;;;;;;0.00;0.00;;;;;;;;;;5011200;28;20484;-68
2022/06/27 03:01:39;;;;;;;0.00;0.00;;;;;;;;;;5009594;28;20501;-68
2022/06/27 03:04:07;;;;;;;0.00;0.00;;;;;;;;;;5010419;28;20149;-68
2022/06/27 03:06:36;;;;;;;0.00;0.00;;;;;;;;;;5010381;28;20053;-68
2022/06/27 03:09:04;;;;;;;0.00;0.00;;;;;;;;;;5009320;28;20133;-68
2022/06/27 03:11:33;;;;;;;0.10;0.10;;;;;;;;;;5009884;28;20050;-68
2022/06/27 03:14:01;;;;;;;0.00;0.00;;;;;;;;;;5007284;28;20056;-69
2022/06/27 03:16:36;;;;;;;0.00;0.00;;;;;;;;;;5010121;28;20085;-68
2022/06/27 03:19:06;;;;;;;0.00;0.00;;;;;;;;;;5007981;28;20143;-68
2022/06/27 03:21:35;;;;;;;0.00;0.00;;;;;;;;;;5007951;28;20129;-68
2022/06/27 03:24:03;;;;;;;0.00;0.00;;;;;;;;;;5011633;28;20443;-68
2022/06/27 03:26:32;;;;;;;0.00;0.00;;;;;;;;;;5006254;28;20520;-68
2022/06/27 03:29:02;;;;;;;0.00;0.00;;;;;;;;;;5011577;28;20495;-68
2022/06/27 03:31:30;;;;;;;0.00;0.00;;;;;;;;;;5005520;28;20508;-68
2022/06/27 03:33:59;;;;;;;0.05;0.05;;;;;;;;;;5010339;28;20045;-68
2022/06/27 03:36:28;;;;;;;0.00;0.00;;;;;;;;;;5008247;28;20389;-68
2022/06/27 03:38:57;;;;;;;0.10;0.10;;;;;;;;;;5010563;28;20140;-68
2022/06/27 03:41:25;;;;;;;0.00;0.00;;;;;;;;;;5008269;28;20552;-68
2022/06/27 03:43:54;;;;;;;0.10;0.10;;;;;;;;;;5008329;28;20125;-68
2022/06/27 03:46:28;;;;;;;0.00;0.00;;;;;;;;;;5007549;28;20398;-68
2022/06/27 03:51:44;;;;;;;0.00;0.00;;;;;;;;;;5006098;28;20058;-68
2022/06/27 03:54:12;;;;;;;0.10;0.10;;;;;;;;;;5009794;28;20046;-68
2022/06/27 03:56:41;;;;;;;0.00;0.00;;;;;;;;;;5006679;28;20486;-68
2022/06/27 03:59:09;;;;;;;0.08;0.08;;;;;;;;;;5008253;28;20077;-68
2022/06/27 04:01:38;;;;;;;0.00;0.00;;;;;;;;;;5008309;28;20045;-68
2022/06/27 04:04:07;;;;;;;0.00;0.00;;;;;;;;;;5009873;28;20077;-68
2022/06/27 04:06:36;;;;;;;0.10;0.10;;;;;;;;;;5007288;28;20077;-68
2022/06/27 04:09:12;;;;;;;0.00;0.00;;;;;;;;;;5008706;28;20108;-68
2022/06/27 04:11:40;;;;;;;0.30;0.30;;;;;;;;;;5007831;28;20089;-68
2022/06/27 04:14:09;;;;;;;0.00;0.00;;;;;;;;;;5008568;28;20148;-68
2022/06/27 04:16:37;;;;;;;0.00;0.00;;;;;;;;;;5006408;28;20104;-68
2022/06/27 04:19:06;;;;;;;0.00;0.00;;;;;;;;;;5011221;28;20038;-68
2022/06/27 04:21:34;;;;;;;0.10;0.10;;;;;;;;;;5010642;28;20056;-68
2022/06/27 04:24:03;;;;;;;0.00;0.00;;;;;;;;;;5009870;28;20077;-68
2022/06/27 04:26:32;;;;;;;0.00;0.00;;;;;;;;;;5007342;28;20482;-68
2022/06/27 04:29:01;;;;;;;0.08;0.08;;;;;;;;;;5008993;28;20405;-68
2022/06/27 04:31:29;;;;;;;0.00;0.00;;;;;;;;;;5005059;28;20052;-68
2022/06/27 04:33:58;;;;;;;0.00;0.00;;;;;;;;;;5011102;28;20058;-68
2022/06/27 04:36:26;;;;;;;0.00;0.00;;;;;;;;;;5002783;28;20117;-68
2022/06/27 04:38:55;;;;;;;0.00;0.00;;;;;;;;;;5001825;28;20511;-68
2022/06/27 04:41:25;;;;;;;0.30;0.30;;;;;;;;;;5003245;28;20034;-68
2022/06/27 04:43:55;;;;;;;0.45;0.45;;;;;;;;;;5004628;28;20054;-68
2022/06/27 04:46:24;;;;;;;0.00;0.00;;;;;;;;;;5004182;28;20081;-68
2022/06/27 04:48:52;;;;;;;0.00;0.00;;;;;;;;;;4998428;28;20054;-68
2022/06/27 04:51:37;;;;;;;0.00;0.00;;;;;;;;;;5006020;28;20059;-68
2022/06/27 04:54:07;;;;;;;0.05;0.05;;;;;;;;;;5004626;28;20458;-68
2022/06/27 04:56:37;;;;;;;0.00;0.00;;;;;;;;;;5000847;28;20128;-68
2022/06/27 04:59:07;;;;;;;0.00;0.00;;;;;;;;;;4998283;28;20596;-68
2022/06/27 05:01:35;;;;;;;0.10;0.10;;;;;;;;;;5004535;28;20543;-68
2022/06/27 05:04:04;;;;;;;0.00;0.00;;;;;;;;;;5001320;28;20049;-68
2022/06/27 05:06:32;;;;;;;0.10;0.10;;;;;;;;;;4998987;28;20041;-68
2022/06/27 05:09:00;;;;;;;0.00;0.00;;;;;;;;;;5003404;28;20126;-68
2022/06/27 05:11:29;;;;;;;0.00;0.00;;;;;;;;;;4998807;28;20050;-68
2022/06/27 05:13:57;;;;;;;0.75;0.20;;;;;;;;;;4999887;28;20077;-68
2022/06/27 05:16:27;;;;;;;0.00;0.00;;;;;;;;;;5000134;28;20058;-68
2022/06/27 05:18:56;;;;;;;0.00;0.00;;;;;;;;;;5004233;28;20062;-68
2022/06/27 05:21:42;;;;;;;0.00;0.00;;;;;;;;;;5003894;28;20080;-68
2022/06/27 05:24:11;;;;;;;0.52;0.52;;;;;;;;;;5005550;28;20080;-68
2022/06/27 05:26:40;;;;;;;0.00;0.00;;;;;;;;;;5004987;28;20041;-68
2022/06/27 05:29:08;;;;;;;0.00;0.00;;;;;;;;;;5005631;28;20045;-68
2022/06/27 05:31:38;;;;;;;0.10;0.10;;;;;;;;;;5009649;28;20050;-68
2022/06/27 05:34:07;;;;;;;0.00;0.00;;;;;;;;;;5009587;28;20054;-68
2022/06/27 05:36:35;;;;;;;0.00;0.00;;;;;;;;;;5004816;28;20096;-69
2022/06/27 05:39:04;;;;;;;0.08;0.08;;;;;;;;;;5010341;28;20177;-70
2022/06/27 05:41:34;;;;;;;0.10;0.10;;;;;;;;;;5010328;28;20073;-69
2022/06/27 05:44:03;;;;;;;0.00;0.00;;;;;;;;;;5009665;28;20041;-69
2022/06/27 05:46:31;;;;;;;0.00;0.00;;;;;;;;;;5010882;28;20050;-69
2022/06/27 05:49:01;;;;;;;0.00;0.00;;;;;;;;;;5008987;28;20516;-69
2022/06/27 05:51:30;;;;;;;0.00;0.00;;;;;;;;;;5010604;28;20108;-69
2022/06/27 05:54:00;;;;;;;0.00;0.00;;;;;;;;;;5009441;28;20096;-69
2022/06/27 05:56:30;;;;;;;0.00;0.00;;;;;;;;;;5014647;28;20054;-69
2022/06/27 05:58:58;;;;;;;0.10;0.10;;;;;;;;;;5013685;28;20415;-69
2022/06/27 06:01:27;;;;;;;0.40;0.40;;;;;;;;;;5014745;28;20281;-69
2022/06/27 06:03:56;;;;;;;0.00;0.00;;;;;;;;;;5011896;28;20054;-69
2022/06/27 06:06:28;;;;;;;0.00;0.00;;;;;;;;;;5013407;28;20064;-69
2022/06/27 06:08:57;;;;;;;0.30;0.17;;;;;;;;;;5014996;28;20494;-69
2022/06/27 06:11:25;;;;;;;0.00;0.00;;;;;;;;;;5015333;28;20477;-69
2022/06/27 06:13:54;;;;;;;0.03;0.03;;;;;;;;;;5014111;28;20054;-69
2022/06/27 06:16:22;;;;;;;0.00;0.00;;;;;;;;;;5013131;28;20448;-70
2022/06/27 06:18:53;;;;;;;0.00;0.00;;;;;;;;;;5018725;28;20053;-69
2022/06/27 06:21:21;;;;;;;0.13;0.10;;;;;;;;;;5015297;28;20521;-69
2022/06/27 06:23:52;;;;;;;0.05;0.05;;;;;;;;;;5014652;28;20045;-69
2022/06/27 06:26:21;;;;;;;0.00;0.00;;;;;;;;;;5015949;28;20112;-69
2022/06/27 06:28:49;;;;;;;0.10;0.10;;;;;;;;;;5013915;28;20076;-69
2022/06/27 06:31:22;;;;;;;0.00;0.00;;;;;;;;;;5015960;28;20053;-69
2022/06/27 06:33:52;;;;;;;1.02;0.85;;;;;;;;;;5015681;28;20469;-69
2022/06/27 06:36:22;;;;;;;0.10;0.10;;;;;;;;;;5016114;28;20046;-69
2022/06/27 06:38:52;;;;;;;0.10;0.10;;;;;;;;;;5013856;28;20070;-69
2022/06/27 06:41:27;;;;;;;0.00;0.00;;;;;;;;;;5014558;28;20095;-69
2022/06/27 06:43:56;;;;;;;0.43;0.43;;;;;;;;;;5013304;28;20404;-69
2022/06/27 06:46:25;;;;;;;0.15;0.10;;;;;;;;;;5013092;28;20120;-69
2022/06/27 06:48:54;;;;;;;0.30;0.10;;;;;;;;;;5013512;28;20088;-69
2022/06/27 06:51:22;;;;;;;0.00;0.00;;;;;;;;;;5014358;28;20042;-69
2022/06/27 06:53:53;;;;;;;0.30;0.13;;;;;;;;;;5013168;28;20046;-69
2022/06/27 06:56:22;;;;;;;0.22;0.10;;;;;;;;;;5005558;28;20041;-68
2022/06/27 06:58:50;;;;;;;0.10;0.10;;;;;;;;;;4993884;28;20169;-68
2022/06/27 07:01:19;;;;;;;0.05;0.05;;;;;;;;;;5003677;28;20127;-68
2022/06/27 07:03:49;;;;;;;0.10;0.10;;;;;;;;;;4995093;28;20575;-68
2022/06/27 07:06:24;;;;;;;0.17;0.15;;;;;;;;;;5000147;28;20128;-68
2022/06/27 07:09:10;;;;;;;0.00;0.00;;;;;;;;;;4996826;28;20045;-68
2022/06/27 07:11:40;;;;;;;0.00;0.00;;;;;;;;;;4985128;28;20058;-68
2022/06/27 07:14:09;;;;;;;0.00;0.00;;;;;;;;;;4999710;28;20381;-68
2022/06/27 07:16:38;;;;;;;0.08;0.08;;;;;;;;;;5009316;28;20038;-68
2022/06/27 07:19:08;;;;;;;0.10;0.03;;;;;;;;;;4994877;28;20058;-68
2022/06/27 07:21:37;;;;;;;0.10;0.10;;;;;;;;;;4992592;28;20062;-68
2022/06/27 07:24:08;;;;;;;0.10;0.10;;;;;;;;;;4994528;28;20042;-68
2022/06/27 07:26:38;;;;;;;0.00;0.00;;;;;;;;;;5006207;28;20117;-68
2022/06/27 07:29:06;;;;;;;0.08;0.08;;;;;;;;;;4998401;28;20053;-68
2022/06/27 07:31:35;;;;;;;0.10;0.10;;;;;;;;;;5001846;28;20073;-68
2022/06/27 07:34:07;;;;;;;0.00;0.00;;;;;;;;;;5000358;28;20053;-68
2022/06/27 07:36:37;;;;;;;0.00;0.00;;;;;;;;;;4991048;28;20046;-68
2022/06/27 07:39:07;;;;;;;0.00;0.00;;;;;;;;;;4998597;28;20061;-68
2022/06/27 07:41:37;;;;;;;0.00;0.00;;;;;;;;;;4999418;28;20100;-68
2022/06/27 07:44:06;;;;;;;0.10;0.10;;;;;;;;;;4999574;28;20050;-68
2022/06/27 07:46:35;;;;;;;0.20;0.10;;;;;;;;;;4999848;28;20050;-69
2022/06/27 07:49:04;;;;;;;0.00;0.00;;;;;;;;;;5008092;28;20050;-68
2022/06/27 07:51:35;;;;;;;0.00;0.00;;;;;;;;;;5000690;28;20513;-68
2022/06/27 07:54:04;;;;;;;0.52;0.30;;;;;;;;;;4994937;28;20046;-68
2022/06/27 07:56:34;;;;;;;0.00;0.00;;;;;;;;;;5003393;28;20081;-69
2022/06/27 07:59:25;;;;;;;0.00;0.00;;;;;;;;;;5003196;28;20147;-68
2022/06/27 08:01:56;;;;;;;0.57;0.20;;;;;;;;;;4992737;28;20054;-69
2022/06/27 08:04:25;;;;;;;0.08;0.08;;;;;;;;;;4993031;28;20090;-69
2022/06/27 08:06:53;;;;;;;0.10;0.10;;;;;;;;;;4997245;28;20061;-69
2022/06/27 08:09:22;;;;;;;0.57;0.57;;;;;;;;;;5005387;28;20050;-69
2022/06/27 08:11:51;;;;;;;0.00;0.00;;;;;;;;;;4999042;28;20117;-69
2022/06/27 08:14:20;;;;;;;0.17;0.10;;;;;;;;;;5001795;28;20070;-69
2022/06/27 08:16:52;;;;;;;0.00;0.00;;;;;;;;;;4998427;28;20105;-69
2022/06/27 08:19:23;;;;;;;0.00;0.00;;;;;;;;;;5002386;28;20112;-68
2022/06/27 08:21:51;;;;;;;0.10;0.10;;;;;;;;;;5008913;28;20049;-69
2022/06/27 08:24:20;;;;;;;0.00;0.00;;;;;;;;;;4997953;28;20054;-69
2022/06/27 08:26:49;;;;;;;0.10;0.10;;;;;;;;;;4995041;28;20092;-69
2022/06/27 08:29:20;;;;;;;0.03;0.03;;;;;;;;;;4995731;28;20058;-68
2022/06/27 08:31:52;;;;;;;0.25;0.22;;;;;;;;;;4991136;28;20062;-69
2022/06/27 08:34:23;;;;;;;0.00;0.00;;;;;;;;;;4996519;28;20099;-69
2022/06/27 08:36:52;;;;;;;0.30;0.20;;;;;;;;;;4990676;28;20042;-69
2022/06/27 08:39:21;;;;;;;0.13;0.13;;;;;;;;;;4993135;28;20046;-69
2022/06/27 08:41:50;;;;;;;0.03;0.03;;;;;;;;;;4991749;28;20047;-69
2022/06/27 08:44:19;;;;;;;0.75;0.20;;;;;;;;;;4994977;28;20074;-68
2022/06/27 08:46:51;;;;;;;0.10;0.10;;;;;;;;;;4999665;28;20104;-69
2022/06/27 08:49:22;;;;;;;0.10;0.10;;;;;;;;;;4996080;28;20267;-69
2022/06/27 08:51:50;;;;;;;0.00;0.00;;;;;;;;;;5004660;28;20413;-69
2022/06/27 08:54:19;;;;;;;0.17;0.17;;;;;;;;;;4993090;28;20046;-69
2022/06/27 08:56:50;;;;;;;0.22;0.22;;;;;;;;;;4995192;28;20046;-69
2022/06/27 08:59:19;;;;;;;0.32;0.22;;;;;;;;;;4994307;28;20081;-69
2022/06/27 09:01:48;;;;;;;0.00;0.00;;;;;;;;;;4999885;28;20096;-69
2022/06/27 09:04:17;;;;;;;0.00;0.00;;;;;;;;;;4994362;28;20065;-69
2022/06/27 09:06:58;;;;;;;0.38;0.17;;;;;;;;;;4998529;28;20046;-69
2022/06/27 09:09:27;;;;;;;0.20;0.20;;;;;;;;;;5000478;28;20054;-69
2022/06/27 09:11:57;;;;;;;0.10;0.10;;;;;;;;;;4993509;28;20069;-69
2022/06/27 09:14:33;;;;;;;0.35;0.13;;;;;;;;;;5002731;28;20082;-68
2022/06/27 09:17:04;;;;;;;0.10;0.10;;;;;;;;;;5004135;28;20046;-69
2022/06/27 09:19:46;;;;;;;0.08;0.08;;;;;;;;;;4995092;28;20053;-69
2022/06/27 09:22:17;;;;;;;0.10;0.10;;;;;;;;;;4993929;28;20370;-69
2022/06/27 09:25:00;;;;;;;0.10;0.10;;;;;;;;;;4990454;28;20054;-68
2022/06/27 09:27:42;;;;;;;0.30;0.10;;;;;;;;;;4998986;28;20096;-69
2022/06/27 09:30:23;;;;;;;0.10;0.10;;;;;;;;;;4992862;28;20058;-69
2022/06/27 09:32:53;;;;;;;0.00;0.00;;;;;;;;;;4997690;28;20494;-69
2022/06/27 09:35:25;;;;;;;0.20;0.20;;;;;;;;;;5003518;28;20042;-69
2022/06/27 09:37:56;;;;;;;0.10;0.10;;;;;;;;;;5004377;28;20053;-69
2022/06/27 09:40:26;;;;;;;0.20;0.20;;;;;;;;;;5000956;28;20081;-70
2022/06/27 09:43:03;;;;;;;1.08;0.70;;;;;;;;;;5001641;28;20060;-69
2022/06/27 09:45:32;;;;;;;0.20;0.10;;;;;;;;;;5004439;28;20042;-68
2022/06/27 09:48:03;;;;;;;0.00;0.00;;;;;;;;;;4998621;28;20051;-68
2022/06/27 09:50:33;;;;;;;0.25;0.25;;;;;;;;;;5007734;28;20064;-69
2022/06/27 09:53:03;;;;;;;0.00;0.00;;;;;;;;;;5005668;28;20038;-69
2022/06/27 09:55:32;;;;;;;0.00;0.00;;;;;;;;;;5001668;28;20100;-68
2022/06/27 09:58:01;;;;;;;0.00;0.00;;;;;;;;;;4994685;28;20050;-68
2022/06/27 10:00:30;;;;;;;0.68;0.30;;;;;;;;;;5003708;28;20088;-69
2022/06/27 10:03:02;;;;;;;0.00;0.00;;;;;;;;;;5001162;28;20060;-69
2022/06/27 10:05:31;;;;;;;0.00;0.00;;;;;;;;;;4998991;28;20069;-68
2022/06/27 10:08:05;;;;;;;0.05;0.05;;;;;;;;;;5006404;28;20464;-68
2022/06/27 10:10:56;;;;;;;0.10;0.10;;;;;;;;;;5000184;28;20060;-68
2022/06/27 10:13:24;;;;;;;0.13;0.13;;;;;;;;;;4999042;28;20058;-68
2022/06/27 10:15:54;;;;;;;0.00;0.00;;;;;;;;;;4995709;28;20062;-69
2022/06/27 10:18:23;;;;;;;0.00;0.00;;;;;;;;;;4997666;28;20054;-68
2022/06/27 10:20:52;;;;;;;0.17;0.10;;;;;;;;;;4995715;28;20050;-69
2022/06/27 10:23:28;;;;;;;0.10;0.10;;;;;;;;;;4993301;28;20355;-68
2022/06/27 10:25:59;;;;;;;0.30;0.30;;;;;;;;;;5001355;28;21049;-68
2022/06/27 10:28:28;;;;;;;0.20;0.20;;;;;;;;;;4995678;28;20355;-68
2022/06/27 10:30:57;;;;;;;0.05;0.00;;;;;;;;;;4995287;28;20050;-68
2022/06/27 10:33:41;;;;;;;0.35;0.30;;;;;;;;;;4998948;28;20477;-69
2022/06/27 10:36:16;;;;;;;0.03;0.03;;;;;;;;;;4992570;28;20042;-69
2022/06/27 10:38:46;;;;;;;0.00;0.00;;;;;;;;;;4991139;28;20092;-69
2022/06/27 10:41:29;;;;;;;0.20;0.20;;;;;;;;;;4998891;28;20173;-68
2022/06/27 10:44:01;;;;;;;0.40;0.10;;;;;;;;;;5000316;28;20154;-68
2022/06/27 10:46:43;;;;;;;0.10;0.10;;;;;;;;;;4999041;28;20074;-69
2022/06/27 10:49:19;;;;;;;0.03;0.03;;;;;;;;;;4997247;28;20129;-68
2022/06/27 10:51:47;;;;;;;0.00;0.00;;;;;;;;;;4998521;28;20050;-68
2022/06/27 10:54:16;;;;;;;0.30;0.20;;;;;;;;;;5002058;28;20080;-69
2022/06/27 10:56:46;;;;;;;1.98;0.80;;;;;;;;;;4999635;28;20081;-69
2022/06/27 10:59:36;;;;;;;0.20;0.20;;;;;;;;;;4996016;28;20500;-68
2022/06/27 11:02:12;;;;;;;0.28;0.28;;;;;;;;;;4978407;28;20058;-68
2022/06/27 11:04:46;;;;;;;0.30;0.30;;;;;;;;;;5006630;28;20061;-68
2022/06/27 11:07:15;;;;;;;0.13;0.10;;;;;;;;;;5006868;28;20046;-68
2022/06/27 11:09:45;;;;;;;0.03;0.03;;;;;;;;;;5001016;28;20405;-68
2022/06/27 11:12:14;;;;;;;0.20;0.20;;;;;;;;;;5004190;28;20066;-68
2022/06/27 11:14:47;;;;;;;0.00;0.00;;;;;;;;;;4999063;28;20046;-69
2022/06/27 11:17:34;;;;;;;0.20;0.20;;;;;;;;;;4995725;28;20711;-68
2022/06/27 11:20:29;;;;;;;0.20;0.20;;;;;;;;;;5007589;28;20160;-69
2022/06/27 11:23:08;;;;;;;0.10;0.10;;;;;;;;;;4999477;28;20109;-69
2022/06/27 11:25:41;;;;;;;0.05;0.05;;;;;;;;;;4994236;28;20575;-69
2022/06/27 11:33:46;;;;;;;0.08;0.08;;;;;;;;;;5003194;28;20141;-69
2022/06/27 11:36:15;;;;;;;0.32;0.30;;;;;;;;;;5004618;28;20107;-69
2022/06/27 11:38:45;;;;;;;0.03;0.03;;;;;;;;;;4997875;28;20120;-69
2022/06/27 11:41:14;;;;;;;7.78;0.20;;;;;;;;;;4996695;28;20577;-67
2022/06/27 11:43:46;;;;;;;0.10;0.10;;;;;;;;;;4993701;28;20150;-67
2022/06/27 11:46:31;;;;;;;1.27;0.20;;;;;;;;;;5001572;28;20042;-67
2022/06/27 11:49:02;;;;;;;0.15;0.10;;;;;;;;;;4996473;28;20054;-69
2022/06/27 11:51:33;;;;;;;0.10;0.10;;;;;;;;;;4996844;28;20105;-69
2022/06/27 11:54:04;;;;;;;0.70;0.70;;;;;;;;;;4996837;28;20131;-69
2022/06/27 11:56:36;;;;;;;0.30;0.10;;;;;;;;;;4995355;28;20933;-69
2022/06/27 11:59:06;;;;;;;0.30;0.30;;;;;;;;;;4996385;28;20062;-69
2022/06/27 12:01:34;;;;;;;0.00;0.00;;;;;;;;;;4999324;28;20119;-68
2022/06/27 12:04:15;;;;;;;0.20;0.20;;;;;;;;;;5001017;28;20045;-69
2022/06/27 12:06:55;;;;;;;0.00;0.00;;;;;;;;;;4993904;28;20125;-69
2022/06/27 12:09:25;;;;;;;1.98;1.08;;;;;;;;;;4998940;28;20651;-69
2022/06/27 12:11:59;;;;;;;0.10;0.10;;;;;;;;;;4995253;28;20054;-69
2022/06/27 12:14:29;;;;;;;0.35;0.30;;;;;;;;;;4998398;28;20057;-69
2022/06/27 12:16:59;;;;;;;0.32;0.25;;;;;;;;;;4996413;28;20506;-69
2022/06/27 12:19:30;;;;;;;0.08;0.08;;;;;;;;;;4996964;28;20048;-69
2022/06/27 12:21:59;;;;;;;0.65;0.45;;;;;;;;;;4993745;28;20077;-69
2022/06/27 12:24:40;;;;;;;0.10;0.10;;;;;;;;;;4998726;28;20054;-68
2022/06/27 12:27:09;;;;;;;0.63;0.00;;;;;;;;;;4996843;28;20050;-69
2022/06/27 12:29:38;;;;;;;0.00;0.00;;;;;;;;;;4995238;28;20042;-69
2022/06/27 12:32:13;;;;;;;0.05;0.05;;;;;;;;;;4995901;28;20054;-69
2022/06/27 12:34:43;;;;;;;0.30;0.30;;;;;;;;;;4995815;28;20494;-69
2022/06/27 12:37:12;;;;;;;0.08;0.08;;;;;;;;;;5000435;28;20541;-69
2022/06/27 12:39:41;;;;;;;0.13;0.13;;;;;;;;;;4998865;28;20056;-69
2022/06/27 12:42:09;;;;;;;0.38;0.30;;;;;;;;;;4993921;28;20498;-69
2022/06/27 12:44:39;;;;;;;0.20;0.20;;;;;;;;;;4998540;28;20493;-68
2022/06/27 12:47:07;;;;;;;0.38;0.30;;;;;;;;;;4998003;28;20486;-69
2022/06/27 12:49:36;;;;;;;0.10;0.10;;;;;;;;;;5005543;28;20050;-68
2022/06/27 12:52:06;;;;;;;0.55;0.55;;;;;;;;;;4994418;28;20042;-68
2022/06/27 12:54:35;;;;;;;0.10;0.10;;;;;;;;;;4998600;28;20136;-68
2022/06/27 12:57:05;;;;;;;0.20;0.20;;;;;;;;;;4991054;28;20056;-68
2022/06/27 12:59:34;;;;;;;2.45;0.20;;;;;;;;;;4999707;28;20478;-68
2022/06/27 13:02:02;;;;;;;0.10;0.10;;;;;;;;;;4995368;28;20080;-68
2022/06/27 13:04:31;;;;;;;0.38;0.38;;;;;;;;;;4990177;28;20070;-69
2022/06/27 13:07:00;;;;;;;0.05;0.05;;;;;;;;;;4998768;28;20054;-68
2022/06/27 13:09:30;;;;;;;0.10;0.10;;;;;;;;;;4994472;28;20058;-68
2022/06/27 13:11:59;;;;;;;0.35;0.20;;;;;;;;;;4993010;28;20053;-69
2022/06/27 13:14:28;;;;;;;0.30;0.30;;;;;;;;;;4993655;28;20045;-69
2022/06/27 13:16:57;;;;;;;0.32;0.32;;;;;;;;;;4992086;28;21109;-68
2022/06/27 13:19:27;;;;;;;0.20;0.20;;;;;;;;;;4992257;28;20097;-68
2022/06/27 13:21:55;;;;;;;0.10;0.10;;;;;;;;;;4994510;28;20062;-68
2022/06/27 13:24:24;;;;;;;0.10;0.10;;;;;;;;;;5001857;28;20058;-68
2022/06/27 13:26:54;;;;;;;0.70;0.70;;;;;;;;;;4994023;28;20045;-69
2022/06/27 13:29:23;;;;;;;0.15;0.15;;;;;;;;;;4992355;28;21085;-68
2022/06/27 13:31:56;;;;;;;0.22;0.10;;;;;;;;;;4993648;28;20565;-68
2022/06/27 13:34:25;;;;;;;0.30;0.30;;;;;;;;;;5005216;28;20085;-68
2022/06/27 13:37:14;;;;;;;0.00;0.00;;;;;;;;;;4997289;28;20089;-68
2022/06/27 13:39:42;;;;;;;0.25;0.13;;;;;;;;;;5000600;28;20046;-68
2022/06/27 13:42:12;;;;;;;0.28;0.20;;;;;;;;;;4991905;28;20127;-69
2022/06/27 13:44:40;;;;;;;0.10;0.10;;;;;;;;;;4995210;28;20072;-67
2022/06/27 13:47:10;;;;;;;0.00;0.00;;;;;;;;;;4997801;28;20478;-68
2022/06/27 13:49:38;;;;;;;0.10;0.10;;;;;;;;;;5000491;28;21614;-69
2022/06/27 13:52:07;;;;;;;0.57;0.30;;;;;;;;;;4993817;28;20038;-68
2022/06/27 13:54:39;;;;;;;0.17;0.17;;;;;;;;;;5002050;28;20077;-68
2022/06/27 13:57:08;;;;;;;0.10;0.10;;;;;;;;;;4997629;28;20049;-68
2022/06/27 13:59:38;;;;;;;0.13;0.10;;;;;;;;;;4994442;28;20054;-66
2022/06/27 14:02:07;;;;;;;1.35;0.25;;;;;;;;;;4997034;28;20069;-67
2022/06/27 14:04:35;;;;;;;0.13;0.13;;;;;;;;;;4996654;28;20042;-68
2022/06/27 14:09:51;;;;;;;0.03;0.03;;;;;;;;;;4993386;28;20061;-69
2022/06/27 14:12:19;;;;;;;0.22;0.15;;;;;;;;;;4990676;28;20053;-69
2022/06/27 14:14:49;;;;;;;0.17;0.17;;;;;;;;;;4995707;28;20109;-68
2022/06/27 14:17:18;;;;;;;0.20;0.20;;;;;;;;;;4995095;28;20045;-69
2022/06/27 14:19:47;;;;;;;0.10;0.10;;;;;;;;;;4994713;28;20053;-67
2022/06/27 14:22:15;;;;;;;0.43;0.30;;;;;;;;;;4998066;28;20077;-68
2022/06/27 14:24:44;;;;;;;0.00;0.00;;;;;;;;;;4997424;28;20046;-68
2022/06/27 14:27:12;;;;;;;0.00;0.00;;;;;;;;;;4998678;28;20054;-68
2022/06/27 14:29:41;;;;;;;1.38;0.30;;;;;;;;;;4992617;28;20058;-67
2022/06/27 14:32:11;;;;;;;0.00;0.00;;;;;;;;;;4996237;28;20119;-67
2022/06/27 14:34:39;;;;;;;0.00;0.00;;;;;;;;;;4997883;28;20085;-68
2022/06/27 14:37:08;;;;;;;0.20;0.20;;;;;;;;;;5001675;28;20511;-67
2022/06/27 14:39:37;;;;;;;0.00;0.00;;;;;;;;;;5006239;28;20069;-68
2022/06/27 14:42:06;;;;;;;0.63;0.40;;;;;;;;;;4994349;28;20073;-68
2022/06/27 14:44:35;;;;;;;0.00;0.00;;;;;;;;;;4998413;28;20432;-68
2022/06/27 14:47:04;;;;;;;0.13;0.13;;;;;;;;;;4997924;28;20082;-68
2022/06/27 14:49:34;;;;;;;0.28;0.08;;;;;;;;;;4996865;28;20041;-68
2022/06/27 14:52:02;;;;;;;0.20;0.20;;;;;;;;;;4994418;28;20540;-69
2022/06/27 14:54:31;;;;;;;0.43;0.32;;;;;;;;;;4992302;28;20053;-68
2022/06/27 14:57:00;;;;;;;0.20;0.20;;;;;;;;;;4997317;28;20070;-69
2022/06/27 14:59:29;;;;;;;0.40;0.40;;;;;;;;;;5004641;28;20338;-68
2022/06/27 15:01:58;;;;;;;0.43;0.22;;;;;;;;;;5001391;28;20054;-68
2022/06/27 15:04:26;;;;;;;0.15;0.13;;;;;;;;;;4997169;28;20061;-68
2022/06/27 15:06:57;;;;;;;0.00;0.00;;;;;;;;;;4995942;28;20054;-69
2022/06/27 15:09:26;;;;;;;0.13;0.10;;;;;;;;;;4996947;28;20050;-68
2022/06/27 15:11:54;;;;;;;0.10;0.10;;;;;;;;;;4999102;28;20607;-69
2022/06/27 15:14:23;;;;;;;0.10;0.10;;;;;;;;;;5004029;28;21308;-68